Time;durP1;ratioP1;P1;durP2;ratioP2;P2;SDS_P1;SDS_P2;PMS_P1;PMS_P2;Temp;Humidity;BMP_temperature;BMP_pressure;BME280_temperature;BME280_humidity;BME280_pressure;Samples;Min_cycle;Max_cycle;Signal;HPM_P1;HPM_P2
2022/11/10 00:02:42;;;;;;;13.40;4.80;;;10.60;99.90;;;;;;4864545;29;20578;-70
2022/11/10 00:05:28;;;;;;;8.87;3.10;;;10.50;99.90;;;;;;4858867;29;20208;-68
2022/11/10 00:08:14;;;;;;;13.50;3.73;;;10.50;99.90;;;;;;4857285;29;20687;-69
2022/11/10 00:11:05;;;;;;;10.43;5.00;;;10.50;99.90;;;;;;4860963;29;20614;-69
2022/11/10 00:17:01;;;;;;;12.80;5.10;;;10.50;99.90;;;;;;4858766;29;20205;-68
2022/11/10 00:19:46;;;;;;;11.03;5.20;;;10.50;99.90;;;;;;4859904;29;20208;-69
2022/11/10 00:22:36;;;;;;;11.93;5.63;;;10.40;99.90;;;;;;4873303;29;20396;-69
2022/11/10 00:25:22;;;;;;;12.03;4.47;;;10.40;99.90;;;;;;4858282;29;20317;-66
2022/11/10 00:28:08;;;;;;;11.10;4.47;;;10.40;99.90;;;;;;4860200;29;20213;-67
2022/11/10 00:30:54;;;;;;;11.93;3.80;;;10.40;99.90;;;;;;4862178;29;20293;-67
2022/11/10 00:33:42;;;;;;;11.30;4.10;;;10.40;99.90;;;;;;4860438;29;20346;-67
2022/11/10 00:36:27;;;;;;;11.47;3.57;;;10.40;99.90;;;;;;4860066;29;20696;-67
2022/11/10 00:39:13;;;;;;;8.03;2.83;;;10.40;99.90;;;;;;4861984;29;20223;-66
2022/11/10 00:41:58;;;;;;;9.13;3.20;;;10.40;99.90;;;;;;4862212;29;20569;-67
2022/11/10 00:44:45;;;;;;;11.77;2.93;;;10.50;99.90;;;;;;4863015;29;20216;-67
2022/11/10 00:47:30;;;;;;;12.30;3.07;;;10.50;99.90;;;;;;4861096;29;20208;-67
2022/11/10 00:50:17;;;;;;;10.27;4.13;;;10.50;99.90;;;;;;4859240;29;20205;-68
2022/11/10 00:53:03;;;;;;;10.10;4.03;;;10.50;99.90;;;;;;4857445;29;20232;-69
2022/11/10 00:55:48;;;;;;;9.53;3.10;;;10.50;1.00;;;;;;4860047;29;20213;-68
2022/11/10 00:58:34;;;;;;;12.60;3.40;;;10.50;99.90;;;;;;4859752;29;20210;-68
2022/11/10 01:01:23;;;;;;;16.20;3.60;;;10.40;1.00;;;;;;4869955;29;20891;-69
2022/11/10 01:04:08;;;;;;;11.37;3.73;;;10.50;1.00;;;;;;4858343;29;20201;-67
2022/11/10 01:06:54;;;;;;;11.40;3.80;;;10.50;1.00;;;;;;4858488;29;20681;-67
2022/11/10 01:09:39;;;;;;;12.97;3.67;;;10.40;1.00;;;;;;4855850;29;20206;-68
2022/11/10 01:12:28;;;;;;;17.93;6.13;;;10.40;1.00;;;;;;4859964;29;20325;-70
2022/11/10 01:15:14;;;;;;;22.07;4.37;;;10.30;1.00;;;;;;4858200;29;20710;-66
2022/11/10 01:17:59;;;;;;;21.10;5.90;;;10.30;1.00;;;;;;4861495;29;20285;-68
2022/11/10 01:20:50;;;;;;;12.70;4.77;;;10.20;1.00;;;;;;4862048;29;20766;-67
2022/11/10 01:23:35;;;;;;;11.83;3.67;;;10.20;1.00;;;;;;4859813;29;20206;-68
2022/11/10 01:26:21;;;;;;;12.20;3.73;;;10.20;1.00;;;;;;4857112;29;20339;-66
2022/11/10 01:29:07;;;;;;;14.67;3.70;;;10.10;1.00;;;;;;4858025;29;20213;-65
2022/11/10 01:31:52;;;;;;;16.13;3.20;;;10.20;1.00;;;;;;4860022;29;20232;-68
2022/11/10 01:34:38;;;;;;;12.73;4.33;;;10.10;1.00;;;;;;4855454;29;20210;-66
2022/11/10 01:37:24;;;;;;;9.63;3.20;;;10.10;1.00;;;;;;4855988;29;20298;-68
2022/11/10 01:40:10;;;;;;;11.10;3.83;;;10.10;1.00;;;;;;4861843;29;20668;-65
2022/11/10 01:42:57;;;;;;;15.93;3.60;;;10.20;1.00;;;;;;4862923;29;20291;-67
2022/11/10 01:45:45;;;;;;;12.80;4.57;;;10.10;1.00;;;;;;4863120;29;20213;-67
2022/11/10 01:48:40;;;;;;;21.83;4.17;;;10.00;1.00;;;;;;4859898;29;20480;-69
2022/11/10 01:51:34;;;;;;;13.60;4.27;;;10.00;1.00;;;;;;4861635;29;20207;-68
2022/11/10 01:54:31;;;;;;;17.13;5.00;;;10.10;1.00;;;;;;4858386;29;20729;-68
2022/11/10 01:57:16;;;;;;;19.33;7.30;;;10.10;1.00;;;;;;4857647;29;20663;-67
2022/11/10 02:00:03;;;;;;;14.73;5.10;;;10.00;1.00;;;;;;4860073;29;20750;-69
2022/11/10 02:02:59;;;;;;;23.83;7.30;;;10.10;1.00;;;;;;4856238;29;20217;-66
2022/11/10 02:05:44;;;;;;;12.20;4.40;;;10.20;1.00;;;;;;4855154;29;20201;-66
2022/11/10 02:08:30;;;;;;;13.97;4.63;;;10.00;1.00;;;;;;4859903;29;20290;-67
2022/11/10 02:11:16;;;;;;;9.47;3.83;;;9.90;42.80;;;;;;4855988;29;20354;-66
2022/11/10 02:14:01;;;;;;;19.43;4.40;;;10.00;5.90;;;;;;4856980;29;20331;-67
2022/11/10 02:16:47;;;;;;;13.80;4.27;;;9.90;1.00;;;;;;4853786;29;20289;-67
2022/11/10 02:19:40;;;;;;;15.77;3.50;;;10.00;21.60;;;;;;4855001;29;20201;-65
2022/11/10 02:22:25;;;;;;;16.77;5.03;;;10.10;1.00;;;;;;4856514;29;20209;-68
2022/11/10 02:25:14;;;;;;;15.53;4.87;;;10.10;1.00;;;;;;4857848;29;20241;-68
2022/11/10 02:28:00;;;;;;;13.80;5.00;;;10.10;1.00;;;;;;4857438;29;20221;-67
2022/11/10 02:30:45;;;;;;;18.10;5.90;;;10.20;1.00;;;;;;4858224;29;20309;-67
2022/11/10 02:33:31;;;;;;;16.10;5.80;;;10.20;1.00;;;;;;4854235;29;20220;-65
2022/11/10 02:36:16;;;;;;;17.03;5.57;;;10.20;1.00;;;;;;4854662;29;21117;-65
2022/11/10 02:39:03;;;;;;;20.57;7.83;;;10.10;1.00;;;;;;4859065;29;20216;-66
2022/11/10 02:41:48;;;;;;;15.57;4.97;;;10.00;1.00;;;;;;4858766;29;20213;-67
2022/11/10 02:44:34;;;;;;;7.37;3.33;;;10.10;1.00;;;;;;4862848;29;20326;-69
2022/11/10 02:47:19;;;;;;;23.77;7.37;;;10.20;1.00;;;;;;4856222;29;20285;-67
2022/11/10 02:50:05;;;;;;;15.77;6.80;;;10.10;1.00;;;;;;4858473;29;20205;-65
2022/11/10 02:52:51;;;;;;;21.97;8.30;;;10.10;1.00;;;;;;4859987;29;20225;-65
2022/11/10 02:55:36;;;;;;;16.27;5.00;;;10.10;1.00;;;;;;4857383;29;20278;-68
2022/11/10 02:58:22;;;;;;;13.13;5.87;;;10.10;1.00;;;;;;4857994;29;20369;-70
2022/11/10 03:01:07;;;;;;;16.50;4.40;;;10.00;1.00;;;;;;4871413;29;20291;-67
2022/11/10 03:03:53;;;;;;;13.93;3.40;;;10.00;1.00;;;;;;4854808;29;20220;-69
2022/11/10 03:06:39;;;;;;;20.20;4.27;;;10.00;1.00;;;;;;4859865;29;20213;-68
2022/11/10 03:09:24;;;;;;;14.87;3.93;;;10.00;1.00;;;;;;4860678;29;20749;-67
2022/11/10 03:12:10;;;;;;;14.33;4.60;;;10.00;1.00;;;;;;4860832;29;20245;-66
2022/11/10 03:14:55;;;;;;;16.13;4.30;;;9.90;1.00;;;;;;4860481;29;20201;-65
2022/11/10 03:17:41;;;;;;;13.03;3.03;;;9.90;11.70;;;;;;4858720;29;20233;-67
2022/11/10 03:20:27;;;;;;;12.57;3.37;;;9.90;1.00;;;;;;4861518;29;20285;-67
2022/11/10 03:23:12;;;;;;;13.37;3.27;;;9.90;1.00;;;;;;4863921;29;20205;-66
2022/11/10 03:25:58;;;;;;;15.57;3.40;;;9.90;1.00;;;;;;4873416;29;20358;-67
2022/11/10 03:28:43;;;;;;;15.10;3.30;;;10.00;1.00;;;;;;4860114;29;20240;-69
2022/11/10 03:31:29;;;;;;;11.30;3.90;;;9.90;1.00;;;;;;4860170;29;20217;-67
2022/11/10 03:34:14;;;;;;;11.70;3.27;;;9.90;1.00;;;;;;4853648;29;20264;-69
2022/11/10 03:37:00;;;;;;;12.17;3.00;;;10.00;1.00;;;;;;4862509;29;20197;-68
2022/11/10 03:39:46;;;;;;;11.37;3.43;;;9.90;1.00;;;;;;4861963;29;20234;-68
2022/11/10 03:42:31;;;;;;;12.23;3.10;;;9.90;1.00;;;;;;4862316;29;20293;-67
2022/11/10 03:45:17;;;;;;;13.93;3.50;;;10.00;1.00;;;;;;4862152;29;20204;-69
2022/11/10 03:48:02;;;;;;;16.77;3.40;;;10.00;1.00;;;;;;4861640;29;20257;-68
2022/11/10 03:50:48;;;;;;;17.60;3.50;;;9.90;1.00;;;;;;4860855;29;20293;-67
2022/11/10 03:53:33;;;;;;;11.50;2.97;;;9.90;31.70;;;;;;4863325;29;20326;-67
2022/11/10 03:56:19;;;;;;;13.60;2.80;;;9.90;3.50;;;;;;4859912;29;20202;-67
2022/11/10 03:59:04;;;;;;;14.33;3.40;;;9.90;11.50;;;;;;4860395;29;20270;-66
2022/11/10 04:01:50;;;;;;;20.93;3.53;;;9.90;1.00;;;;;;4862185;29;20326;-66
2022/11/10 04:10:45;;;;;;;17.93;3.73;;;9.80;29.00;;;;;;4860755;29;20254;-69
2022/11/10 04:16:35;;;;;;;13.87;3.20;;;9.90;1.00;;;;;;4836697;29;20221;-65
2022/11/10 04:19:20;;;;;;;17.80;4.57;;;9.90;46.20;;;;;;4855365;29;20209;-63
2022/11/10 04:23:25;;;;;;;13.93;4.20;;;9.90;1.00;;;;;;4859745;29;20224;-66
2022/11/10 04:25:11;;;;;;;20.87;7.97;;;10.00;1.00;;;;;;4858960;29;20339;-65
2022/11/10 04:27:57;;;;;;;14.40;4.73;;;10.00;1.00;;;;;;4854701;29;20208;-64
2022/11/10 04:30:43;;;;;;;17.93;4.20;;;9.90;15.50;;;;;;4857243;29;20213;-66
2022/11/10 04:33:29;;;;;;;14.10;3.00;;;9.90;4.00;;;;;;4859572;29;20264;-66
2022/11/10 04:36:17;;;;;;;22.13;4.50;;;10.00;28.90;;;;;;4855004;29;20345;-66
2022/11/10 04:39:05;;;;;;;16.80;5.30;;;10.00;1.00;;;;;;4858949;29;20219;-65
2022/11/10 04:41:50;;;;;;;13.67;4.60;;;9.90;14.00;;;;;;4859991;29;20972;-65
2022/11/10 04:44:36;;;;;;;18.07;4.57;;;9.90;99.90;;;;;;4858070;29;20345;-67
2022/11/10 04:47:21;;;;;;;17.97;5.43;;;9.90;92.70;;;;;;4860208;29;20678;-65
2022/11/10 04:50:07;;;;;;;15.87;4.77;;;9.90;55.50;;;;;;4861317;29;20197;-66
2022/11/10 04:52:52;;;;;;;20.30;4.33;;;9.90;63.90;;;;;;4857617;29;20225;-64
2022/11/10 04:55:39;;;;;;;19.40;5.60;;;9.90;99.90;;;;;;4859175;29;20704;-64
2022/11/10 04:58:25;;;;;;;22.60;7.13;;;9.90;19.90;;;;;;4856862;29;20282;-67
2022/11/10 05:01:14;;;;;;;19.20;5.90;;;9.90;52.90;;;;;;4859663;29;20204;-64
2022/11/10 05:04:00;;;;;;;17.10;3.80;;;9.80;72.90;;;;;;4855222;29;20654;-66
2022/11/10 05:06:45;;;;;;;16.83;4.27;;;9.90;99.90;;;;;;4860207;29;20209;-65
2022/11/10 05:09:31;;;;;;;20.17;4.40;;;9.80;99.90;;;;;;4856704;29;20357;-66
2022/11/10 05:12:16;;;;;;;21.27;7.73;;;9.90;99.90;;;;;;4855672;29;20305;-65
2022/11/10 05:15:08;;;;;;;11.07;4.00;;;9.80;99.90;;;;;;4854044;29;20201;-65
2022/11/10 05:17:54;;;;;;;18.37;4.63;;;9.80;99.90;;;;;;4857401;29;20206;-65
2022/11/10 05:20:39;;;;;;;20.00;4.47;;;9.80;99.90;;;;;;4856686;29;20205;-66
2022/11/10 05:23:37;;;;;;;17.33;3.87;;;9.80;99.90;;;;;;4870933;29;20217;-66
2022/11/10 05:26:22;;;;;;;18.90;5.07;;;9.80;1.00;;;;;;4857184;29;20213;-64
2022/11/10 05:29:07;;;;;;;16.90;3.50;;;9.90;99.90;;;;;;4857623;29;20692;-68
2022/11/10 05:31:53;;;;;;;14.33;5.83;;;9.90;99.90;;;;;;4857978;29;20220;-66
2022/11/10 05:34:39;;;;;;;18.93;5.53;;;9.90;99.90;;;;;;4858186;29;20204;-67
2022/11/10 05:37:24;;;;;;;11.47;3.83;;;9.90;99.90;;;;;;4849097;29;20209;-64
2022/11/10 05:40:10;;;;;;;17.37;4.17;;;9.90;99.90;;;;;;4860147;29;20256;-69
2022/11/10 05:42:56;;;;;;;22.10;7.17;;;9.90;99.90;;;;;;4858970;29;20301;-66
2022/11/10 05:45:41;;;;;;;25.97;7.87;;;9.80;99.90;;;;;;4858245;29;20988;-66
2022/11/10 05:48:27;;;;;;;26.67;8.37;;;9.70;1.00;;;;;;4858702;29;20236;-65
2022/11/10 05:51:12;;;;;;;18.20;5.23;;;9.70;1.00;;;;;;4852753;29;20226;-64
2022/11/10 05:53:58;;;;;;;21.27;5.37;;;9.70;1.00;;;;;;4855126;29;20350;-66
2022/11/10 05:56:44;;;;;;;12.00;4.03;;;9.70;1.00;;;;;;4857921;29;20209;-64
2022/11/10 05:59:30;;;;;;;19.33;6.73;;;9.70;1.00;;;;;;4847283;29;20208;-66
2022/11/10 06:02:15;;;;;;;17.50;4.20;;;9.60;1.00;;;;;;4859528;29;20578;-67
2022/11/10 06:05:01;;;;;;;17.93;4.27;;;9.60;1.00;;;;;;4854908;29;20232;-66
2022/11/10 06:07:46;;;;;;;12.13;3.90;;;9.60;1.00;;;;;;4858235;29;20545;-65
2022/11/10 06:10:34;;;;;;;16.17;4.40;;;9.70;1.00;;;;;;4860088;29;20209;-65
2022/11/10 06:13:20;;;;;;;21.90;8.33;;;9.60;1.00;;;;;;4868062;29;20262;-66
2022/11/10 06:16:06;;;;;;;17.00;4.40;;;9.60;1.00;;;;;;4862717;29;20565;-66
2022/11/10 06:18:51;;;;;;;12.93;4.03;;;9.60;1.00;;;;;;4857818;29;20295;-65
2022/11/10 06:21:37;;;;;;;19.43;4.07;;;9.60;1.00;;;;;;4858930;29;20204;-66
2022/11/10 06:24:22;;;;;;;19.60;6.00;;;9.60;1.00;;;;;;4854657;29;20225;-65
2022/11/10 06:27:08;;;;;;;20.13;5.17;;;9.60;1.00;;;;;;4858013;29;20362;-65
2022/11/10 06:29:53;;;;;;;25.47;5.07;;;9.50;1.00;;;;;;4859900;29;20216;-66
2022/11/10 06:32:44;;;;;;;16.80;4.27;;;9.60;1.00;;;;;;4859968;29;20337;-64
2022/11/10 06:35:29;;;;;;;16.30;5.67;;;9.60;1.00;;;;;;4859848;29;20221;-65
2022/11/10 06:38:14;;;;;;;16.97;4.13;;;9.60;1.00;;;;;;4862296;29;20217;-63
2022/11/10 06:41:00;;;;;;;18.93;5.00;;;9.60;1.00;;;;;;4863438;29;20643;-66
2022/11/10 06:43:46;;;;;;;18.60;5.93;;;9.60;1.00;;;;;;4862921;29;20213;-66
2022/11/10 06:46:31;;;;;;;19.23;6.80;;;9.70;1.00;;;;;;4861185;29;20221;-65
2022/11/10 06:49:22;;;;;;;16.60;7.20;;;9.70;1.00;;;;;;4857151;29;20210;-64
2022/11/10 06:52:08;;;;;;;19.03;5.57;;;9.70;1.00;;;;;;4864453;29;20216;-67
2022/11/10 06:54:53;;;;;;;20.47;5.70;;;9.80;1.00;;;;;;4863817;29;20351;-64
2022/11/10 06:57:39;;;;;;;18.07;5.47;;;9.90;1.00;;;;;;4863162;29;20209;-65
2022/11/10 07:00:26;;;;;;;16.87;5.13;;;9.90;1.00;;;;;;4871086;29;20206;-65
2022/11/10 07:03:13;;;;;;;13.90;3.83;;;9.90;1.00;;;;;;4860048;29;20217;-63
2022/11/10 07:05:58;;;;;;;14.73;5.00;;;10.10;99.90;;;;;;4852780;29;20282;-66
2022/11/10 07:08:44;;;;;;;21.93;5.43;;;10.10;99.90;;;;;;4861213;29;20236;-66
2022/11/10 07:11:29;;;;;;;26.73;5.60;;;10.10;99.90;;;;;;4859330;29;20212;-65
2022/11/10 07:14:15;;;;;;;18.93;5.60;;;10.20;99.90;;;;;;4862369;29;20233;-65
2022/11/10 07:17:00;;;;;;;22.10;5.53;;;10.20;99.90;;;;;;4862906;29;20677;-66
2022/11/10 07:19:46;;;;;;;15.13;4.10;;;10.20;99.90;;;;;;4861814;29;20554;-65
2022/11/10 07:22:31;;;;;;;27.83;5.87;;;10.20;99.90;;;;;;4863554;29;20217;-65
2022/11/10 07:25:17;;;;;;;20.40;4.87;;;10.20;99.90;;;;;;4852636;29;20221;-65
2022/11/10 07:28:05;;;;;;;16.60;5.37;;;10.30;99.90;;;;;;4864158;29;20214;-66
2022/11/10 07:30:51;;;;;;;19.73;5.30;;;10.30;99.90;;;;;;4848724;29;20205;-65
2022/11/10 07:33:36;;;;;;;20.90;5.63;;;10.40;99.90;;;;;;4863359;29;20622;-64
2022/11/10 07:36:22;;;;;;;18.80;5.87;;;10.40;99.90;;;;;;4862117;29;20232;-65
2022/11/10 07:39:09;;;;;;;17.80;4.63;;;10.50;26.60;;;;;;4863350;29;20298;-66
2022/11/10 07:41:54;;;;;;;21.57;4.97;;;10.50;1.00;;;;;;4860260;29;20733;-65
2022/11/10 07:44:40;;;;;;;24.23;5.03;;;10.60;1.00;;;;;;4862570;29;20713;-64
2022/11/10 07:47:25;;;;;;;18.73;4.27;;;10.60;1.00;;;;;;4864189;29;20298;-63
2022/11/10 07:50:11;;;;;;;20.20;5.97;;;10.60;1.00;;;;;;4865641;29;20350;-64
2022/11/10 07:53:14;;;;;;;14.70;4.73;;;10.70;1.00;;;;;;4859943;29;20209;-65
2022/11/10 07:56:00;;;;;;;15.40;5.40;;;10.80;1.00;;;;;;4859459;29;20287;-65
2022/11/10 07:58:46;;;;;;;18.30;6.00;;;10.90;1.00;;;;;;4861546;29;20355;-65
2022/11/10 08:01:32;;;;;;;20.43;5.80;;;11.10;1.00;;;;;;4861098;29;20229;-65
2022/11/10 08:04:19;;;;;;;18.17;4.50;;;11.10;1.00;;;;;;4858504;29;20338;-64
2022/11/10 08:07:04;;;;;;;16.07;4.57;;;11.20;1.00;;;;;;4861145;29;20279;-64
2022/11/10 08:09:50;;;;;;;20.83;3.90;;;11.30;1.00;;;;;;4874596;29;20214;-66
2022/11/10 08:12:35;;;;;;;16.23;4.30;;;11.30;1.00;;;;;;4861089;29;20266;-65
2022/11/10 08:15:21;;;;;;;19.97;3.77;;;11.50;99.90;;;;;;4858404;29;20213;-65
2022/11/10 08:18:22;;;;;;;15.50;3.80;;;11.50;99.90;;;;;;4863679;29;20258;-65
2022/11/10 08:21:07;;;;;;;13.07;4.07;;;11.60;99.90;;;;;;4864373;29;20217;-66
2022/11/10 08:23:53;;;;;;;16.57;4.27;;;11.70;99.90;;;;;;4863963;29;20242;-64
2022/11/10 08:26:38;;;;;;;15.60;4.57;;;11.80;99.90;;;;;;4863386;29;20220;-65
2022/11/10 08:29:24;;;;;;;17.67;4.10;;;11.90;99.90;;;;;;4857048;29;20289;-66
2022/11/10 08:32:09;;;;;;;18.67;4.47;;;12.10;99.90;;;;;;4860962;29;20342;-65
2022/11/10 08:34:54;;;;;;;12.47;4.30;;;12.20;99.90;;;;;;4860446;29;20229;-64
2022/11/10 08:37:40;;;;;;;18.00;3.47;;;12.30;99.90;;;;;;4865789;29;20204;-64
2022/11/10 08:40:26;;;;;;;16.83;4.53;;;12.50;94.00;;;;;;4860251;29;20218;-63
2022/11/10 08:43:13;;;;;;;11.67;3.57;;;12.60;45.30;;;;;;4862510;29;20933;-65
2022/11/10 08:46:00;;;;;;;15.57;4.03;;;12.60;25.00;;;;;;4856711;29;20759;-65
2022/11/10 08:48:46;;;;;;;13.70;3.73;;;12.80;19.00;;;;;;4860333;29;20209;-64
2022/11/10 08:51:31;;;;;;;13.90;3.60;;;13.10;1.00;;;;;;4862274;29;20205;-66
2022/11/10 08:54:23;;;;;;;19.50;4.47;;;13.10;1.00;;;;;;4861339;29;20220;-65
2022/11/10 08:57:08;;;;;;;12.20;3.67;;;13.30;1.00;;;;;;4859847;29;20227;-64
2022/11/10 08:59:54;;;;;;;13.05;3.78;;;16.60;1.00;;;;;;4859462;29;20430;-64
2022/11/10 09:02:39;;;;;;;12.13;3.65;;;20.20;1.00;;;;;;4860387;29;20568;-65
2022/11/10 09:05:25;;;;;;;10.18;3.38;;;23.00;1.00;;;;;;4862034;29;20281;-65
2022/11/10 09:08:11;;;;;;;16.33;3.60;;;22.00;1.00;;;;;;4859324;29;20308;-64
2022/11/10 09:10:56;;;;;;;13.65;3.83;;;21.80;1.00;;;;;;4854396;29;20757;-65
2022/11/10 09:13:41;;;;;;;19.90;3.72;;;23.40;1.00;;;;;;4859649;29;20237;-65
2022/11/10 09:16:27;;;;;;;11.20;3.03;;;23.30;1.00;;;;;;4859570;29;20708;-65
2022/11/10 09:19:12;;;;;;;16.23;3.97;;;21.70;1.00;;;;;;4860517;29;20847;-66
2022/11/10 09:22:06;;;;;;;13.20;3.08;;;24.40;1.00;;;;;;4858605;29;20685;-66
2022/11/10 09:24:51;;;;;;;11.68;4.07;;;22.40;1.00;;;;;;4860455;29;20302;-66
2022/11/10 09:27:37;;;;;;;17.48;3.60;;;23.40;1.00;;;;;;4857635;29;20231;-66
2022/11/10 09:30:24;;;;;;;11.25;4.28;;;23.30;1.00;;;;;;4854720;29;20409;-65
2022/11/10 09:33:09;;;;;;;14.00;4.03;;;25.80;1.00;;;;;;4856906;29;20224;-66
2022/11/10 09:35:58;;;;;;;11.57;2.78;;;25.50;1.00;;;;;;4854903;29;20209;-65
2022/11/10 09:38:44;;;;;;;12.95;2.90;;;24.70;1.00;;;;;;4846754;29;20213;-67
2022/11/10 09:41:30;;;;;;;10.80;3.63;;;25.20;1.00;;;;;;4852861;29;20210;-66
2022/11/10 09:44:26;;;;;;;15.00;3.75;;;24.70;1.00;;;;;;4855443;29;20263;-64
2022/11/10 09:47:16;;;;;;;12.20;2.75;;;27.00;1.00;;;;;;4860686;29;20331;-65
2022/11/10 09:50:40;;;;;;;10.13;4.00;;;26.80;1.00;;;;;;4855413;29;20213;-66
2022/11/10 09:53:49;;;;;;;14.35;3.28;;;27.20;1.00;;;;;;4857243;29;20215;-66
2022/11/10 09:56:36;;;;;;;12.10;3.03;;;25.40;1.00;;;;;;4859656;29;20345;-65
2022/11/10 09:59:27;;;;;;;12.07;2.90;;;24.60;1.00;;;;;;4854383;29;20644;-66
2022/11/10 10:02:32;;;;;;;7.95;3.00;;;25.80;1.00;;;;;;4858239;29;20205;-64
2022/11/10 10:05:26;;;;;;;13.52;2.92;;;27.70;1.00;;;;;;4857425;29;20835;-65
2022/11/10 10:08:40;;;;;;;11.80;3.33;;;23.30;1.00;;;;;;4858957;29;20566;-68
2022/11/10 10:11:58;;;;;;;15.25;3.42;;;23.10;1.00;;;;;;4856401;29;20262;-66
2022/11/10 10:15:06;;;;;;;12.52;3.20;;;22.70;1.00;;;;;;4855719;29;20377;-65
2022/11/10 10:18:01;;;;;;;15.25;3.63;;;22.00;1.00;;;;;;4863839;29;20216;-65
2022/11/10 10:21:04;;;;;;;12.23;3.17;;;22.80;1.00;;;;;;4863721;29;20201;-65
2022/11/10 10:23:57;;;;;;;14.18;3.20;;;22.70;1.00;;;;;;4861777;29;20560;-65
2022/11/10 10:27:05;;;;;;;13.85;2.78;;;22.70;1.00;;;;;;4861170;29;20609;-64
2022/11/10 10:29:51;;;;;;;15.88;4.80;;;22.60;1.00;;;;;;4858215;29;20208;-66
2022/11/10 10:32:37;;;;;;;10.27;3.80;;;21.60;1.00;;;;;;4865216;29;20259;-65
2022/11/10 10:35:23;;;;;;;12.98;3.45;;;20.70;1.00;;;;;;4861593;29;20580;-65
2022/11/10 10:38:21;;;;;;;13.85;3.20;;;21.70;1.00;;;;;;4862499;29;20205;-66
2022/11/10 10:41:29;;;;;;;10.93;2.90;;;22.80;1.00;;;;;;4862756;29;20209;-67
2022/11/10 10:44:18;;;;;;;12.20;3.00;;;23.00;1.00;;;;;;4851586;29;20217;-66
2022/11/10 10:47:03;;;;;;;13.70;3.67;;;23.60;1.00;;;;;;4862347;29;20835;-65
2022/11/10 10:49:49;;;;;;;12.32;3.17;;;22.30;1.00;;;;;;4862813;29;20209;-66
2022/11/10 10:52:34;;;;;;;11.27;3.63;;;21.70;1.00;;;;;;4863867;29;20201;-65
2022/11/10 10:55:26;;;;;;;16.58;3.20;;;22.70;1.00;;;;;;4859770;29;20607;-65
2022/11/10 10:58:25;;;;;;;14.80;3.10;;;22.00;1.00;;;;;;4862487;29;20446;-66
2022/11/10 11:01:14;;;;;;;18.00;3.30;;;22.50;1.00;;;;;;4861297;29;20214;-66
2022/11/10 11:04:23;;;;;;;14.00;3.70;;;21.60;1.00;;;;;;4860354;29;21189;-67
2022/11/10 11:07:21;;;;;;;14.85;3.85;;;21.40;1.00;;;;;;4862090;29;20248;-66
2022/11/10 11:10:32;;;;;;;11.63;3.30;;;22.70;1.00;;;;;;4862431;29;20248;-66
2022/11/10 11:13:22;;;;;;;16.42;4.13;;;24.60;1.00;;;;;;4863546;29;20252;-65
2022/11/10 11:16:11;;;;;;;12.35;3.17;;;24.00;1.00;;;;;;4859018;29;20339;-68
2022/11/10 11:18:56;;;;;;;13.13;3.13;;;23.50;1.00;;;;;;4859674;29;20209;-66
2022/11/10 11:22:03;;;;;;;13.73;3.28;;;22.80;1.00;;;;;;4860696;29;20761;-64
2022/11/10 11:25:09;;;;;;;11.98;3.10;;;21.80;1.00;;;;;;4859694;29;20213;-67
2022/11/10 11:28:26;;;;;;;9.55;3.05;;;20.80;1.00;;;;;;4862670;29;20221;-68
2022/11/10 11:31:52;;;;;;;18.25;3.20;;;19.50;1.00;;;;;;4860292;29;20221;-66
2022/11/10 11:35:13;;;;;;;13.68;3.30;;;20.40;1.00;;;;;;4844275;29;20236;-67
2022/11/10 11:38:57;;;;;;;11.35;3.03;;;21.10;1.00;;;;;;4857932;29;20327;-68
2022/11/10 11:42:02;;;;;;;15.25;3.38;;;22.10;1.00;;;;;;4814405;29;20219;-66
2022/11/10 11:45:10;;;;;;;11.30;3.05;;;19.50;1.00;;;;;;4799895;29;20214;-65
2022/11/10 11:48:14;;;;;;;9.02;2.13;;;19.40;1.00;;;;;;4861760;29;20342;-64
2022/11/10 11:51:14;;;;;;;14.85;3.40;;;19.80;1.00;;;;;;4860471;29;20209;-66
2022/11/10 11:54:02;;;;;;;14.57;2.95;;;18.70;1.00;;;;;;4860773;29;20564;-64
2022/11/10 11:56:50;;;;;;;11.10;3.05;;;17.70;1.00;;;;;;4854881;29;20608;-64
2022/11/10 11:59:56;;;;;;;15.18;3.25;;;17.80;1.00;;;;;;4859239;29;20419;-64
2022/11/10 12:03:24;;;;;;;9.52;3.30;;;18.40;1.00;;;;;;4861367;29;20205;-65
2022/11/10 12:06:39;;;;;;;12.02;2.90;;;18.60;1.00;;;;;;4862819;29;20819;-64
2022/11/10 12:09:51;;;;;;;10.57;3.00;;;19.80;1.00;;;;;;4857447;29;20206;-66
2022/11/10 12:13:16;;;;;;;12.07;3.15;;;19.50;1.00;;;;;;4862448;29;20477;-63
2022/11/10 12:16:07;;;;;;;12.57;3.40;;;19.10;1.00;;;;;;4857764;29;20237;-64
2022/11/10 12:19:19;;;;;;;8.98;3.28;;;17.40;1.00;;;;;;4864415;29;20209;-65
2022/11/10 12:22:20;;;;;;;15.35;2.97;;;17.30;1.00;;;;;;4858461;29;20208;-65
2022/11/10 12:25:11;;;;;;;11.18;3.17;;;17.10;1.00;;;;;;4860023;29;20257;-65
2022/11/10 12:28:20;;;;;;;12.27;2.88;;;17.10;1.00;;;;;;4854712;29;20234;-65
2022/11/10 12:31:16;;;;;;;13.70;3.35;;;18.00;1.00;;;;;;4870205;29;20233;-64
2022/11/10 12:34:06;;;;;;;13.02;2.92;;;18.00;1.00;;;;;;4859162;29;20210;-65
2022/11/10 12:36:52;;;;;;;10.38;3.20;;;18.10;1.00;;;;;;4862203;29;20213;-63
2022/11/10 12:39:37;;;;;;;12.05;3.47;;;17.70;1.00;;;;;;4865452;29;20346;-66
2022/11/10 12:42:27;;;;;;;7.22;2.55;;;17.00;1.00;;;;;;4857116;29;20205;-64
2022/11/10 12:45:36;;;;;;;11.50;2.55;;;17.10;1.00;;;;;;4850299;29;20202;-66
2022/11/10 12:48:24;;;;;;;6.63;2.28;;;17.90;1.00;;;;;;4857108;29;20242;-67
2022/11/10 12:51:23;;;;;;;11.02;3.08;;;17.30;1.00;;;;;;4858728;29;20217;-68
2022/11/10 12:54:14;;;;;;;10.93;2.80;;;17.50;1.00;;;;;;4857162;29;20274;-66
2022/11/10 12:57:06;;;;;;;9.88;2.72;;;17.10;1.00;;;;;;4854981;29;20256;-65
2022/11/10 13:00:04;;;;;;;13.20;2.55;;;17.00;1.00;;;;;;4856647;29;20209;-65
2022/11/10 13:02:51;;;;;;;10.80;2.88;;;16.80;1.00;;;;;;4869151;29;20197;-65
2022/11/10 13:05:40;;;;;;;8.15;3.03;;;16.40;1.00;;;;;;4859330;29;20246;-66
2022/11/10 13:08:36;;;;;;;10.07;2.78;;;16.30;1.00;;;;;;4845143;29;20334;-65
2022/11/10 13:11:32;;;;;;;10.95;2.88;;;16.20;1.00;;;;;;4850339;29;20564;-65
2022/11/10 13:14:38;;;;;;;7.00;2.28;;;16.50;1.00;;;;;;4856478;29;20240;-64
2022/11/10 13:17:27;;;;;;;8.13;2.05;;;16.50;1.00;;;;;;4859167;29;20865;-66
2022/11/10 13:20:37;;;;;;;9.60;2.60;;;16.50;1.00;;;;;;4854174;29;20717;-64
2022/11/10 13:23:27;;;;;;;5.78;1.85;;;16.50;1.00;;;;;;4860508;29;20200;-64
2022/11/10 13:26:37;;;;;;;10.07;2.22;;;16.40;1.00;;;;;;4853618;29;20216;-65
2022/11/10 13:29:41;;;;;;;7.60;2.17;;;16.00;1.00;;;;;;4856259;29;20300;-64
2022/11/10 13:32:31;;;;;;;11.18;2.28;;;16.10;1.00;;;;;;4856301;29;20216;-64
2022/11/10 13:35:29;;;;;;;9.82;2.60;;;16.10;1.00;;;;;;4858911;29;20229;-64
2022/11/10 13:38:34;;;;;;;10.15;2.47;;;16.20;1.00;;;;;;4853551;29;20209;-72
2022/11/10 13:41:23;;;;;;;10.05;3.05;;;16.10;1.00;;;;;;4861876;29;20209;-75
2022/11/10 13:44:35;;;;;;;11.60;2.50;;;16.10;1.00;;;;;;4844504;29;20229;-71
2022/11/10 13:47:49;;;;;;;11.25;2.90;;;16.00;1.00;;;;;;4859770;29;20208;-72
2022/11/10 13:51:02;;;;;;;8.82;2.30;;;16.00;1.00;;;;;;4855627;29;20205;-71
2022/11/10 13:54:05;;;;;;;12.07;2.85;;;16.00;1.00;;;;;;4853607;29;20256;-71
2022/11/10 13:57:18;;;;;;;7.68;2.47;;;15.90;1.00;;;;;;4851866;29;20249;-71
2022/11/10 14:00:24;;;;;;;12.48;2.80;;;15.80;1.00;;;;;;4856100;29;20240;-72
2022/11/10 14:03:43;;;;;;;13.35;3.08;;;15.80;1.00;;;;;;4847044;29;20561;-71
2022/11/10 14:06:39;;;;;;;13.45;3.53;;;15.80;1.00;;;;;;4857484;29;20214;-71
2022/11/10 14:09:33;;;;;;;12.98;2.97;;;15.70;1.00;;;;;;4856335;29;20218;-71
2022/11/10 14:12:39;;;;;;;8.88;2.55;;;15.60;1.00;;;;;;4857273;29;20263;-71
2022/11/10 14:15:46;;;;;;;8.43;2.65;;;15.60;1.00;;;;;;4857715;29;20345;-72
2022/11/10 14:18:40;;;;;;;7.88;2.80;;;15.60;1.00;;;;;;4855355;29;20684;-71
2022/11/10 14:21:37;;;;;;;8.65;2.17;;;15.50;1.00;;;;;;4854611;29;20682;-71
2022/11/10 14:24:47;;;;;;;12.23;2.70;;;15.50;1.00;;;;;;4846890;29;20579;-72
2022/11/10 14:27:37;;;;;;;8.05;2.75;;;15.40;1.00;;;;;;4854694;29;20730;-72
2022/11/10 14:30:25;;;;;;;9.00;2.28;;;15.40;1.00;;;;;;4864331;29;20237;-71
2022/11/10 14:33:13;;;;;;;5.63;1.90;;;15.30;1.00;;;;;;4860335;29;20197;-72
2022/11/10 14:36:04;;;;;;;9.90;2.25;;;15.30;1.00;;;;;;4854338;29;20363;-70
2022/11/10 14:38:51;;;;;;;8.57;1.77;;;15.30;1.00;;;;;;4854735;29;20216;-72
2022/11/10 14:41:45;;;;;;;8.55;2.47;;;15.20;1.00;;;;;;4859418;29;20262;-71
2022/11/10 14:44:32;;;;;;;10.25;2.58;;;15.20;1.00;;;;;;4858046;29;20224;-71
2022/11/10 14:47:29;;;;;;;10.73;2.00;;;15.10;1.00;;;;;;4848178;29;20209;-72
2022/11/10 14:50:17;;;;;;;5.85;2.00;;;15.10;1.00;;;;;;4856539;29;20267;-71
2022/11/10 14:53:13;;;;;;;8.48;1.98;;;15.10;1.00;;;;;;4856793;29;20246;-72
2022/11/10 14:56:01;;;;;;;8.05;3.08;;;15.00;1.00;;;;;;4858691;29;22360;-72
2022/11/10 14:58:47;;;;;;;7.78;2.15;;;15.00;1.00;;;;;;4857780;29;20208;-73
2022/11/10 15:01:37;;;;;;;9.90;2.22;;;14.90;1.00;;;;;;4848825;29;20311;-73
2022/11/10 15:04:32;;;;;;;9.17;2.47;;;14.80;1.00;;;;;;4863249;29;20228;-72